sensor_id;sensor_type;location;lat;lon;timestamp;P1;durP1;ratioP1;P2;durP2;ratioP2
29210;SDS011;16250;49.932;10.980;2022-07-23T00:00:07;9.30;;;7.32;;
29210;SDS011;16250;49.932;10.980;2022-07-23T00:02:33;8.68;;;7.32;;
29210;SDS011;16250;49.932;10.980;2022-07-23T00:04:59;9.85;;;7.55;;
29210;SDS011;16250;49.932;10.980;2022-07-23T00:07:25;10.32;;;7.25;;
29210;SDS011;16250;49.932;10.980;2022-07-23T00:09:50;9.48;;;7.85;;
29210;SDS011;16250;49.932;10.980;2022-07-23T00:12:16;9.23;;;7.72;;
29210;SDS011;16250;49.932;10.980;2022-07-23T00:14:42;10.05;;;7.55;;
29210;SDS011;16250;49.932;10.980;2022-07-23T00:17:07;8.40;;;7.60;;
29210;SDS011;16250;49.932;10.980;2022-07-23T00:19:33;10.02;;;7.90;;
29210;SDS011;16250;49.932;10.980;2022-07-23T00:21:58;8.50;;;7.70;;
29210;SDS011;16250;49.932;10.980;2022-07-23T00:24:24;9.68;;;8.15;;
29210;SDS011;16250;49.932;10.980;2022-07-23T00:26:49;10.15;;;7.55;;
29210;SDS011;16250;49.932;10.980;2022-07-23T00:29:15;9.52;;;7.78;;
29210;SDS011;16250;49.932;10.980;2022-07-23T00:31:40;9.45;;;7.53;;
29210;SDS011;16250;49.932;10.980;2022-07-23T00:34:06;8.63;;;7.72;;
29210;SDS011;16250;49.932;10.980;2022-07-23T00:36:32;12.45;;;7.82;;
29210;SDS011;16250;49.932;10.980;2022-07-23T00:38:57;8.40;;;7.45;;
29210;SDS011;16250;49.932;10.980;2022-07-23T00:41:23;9.13;;;7.85;;
29210;SDS011;16250;49.932;10.980;2022-07-23T00:43:49;8.20;;;6.85;;
29210;SDS011;16250;49.932;10.980;2022-07-23T00:46:21;8.15;;;6.85;;
29210;SDS011;16250;49.932;10.980;2022-07-23T00:48:47;8.57;;;6.70;;
29210;SDS011;16250;49.932;10.980;2022-07-23T00:51:14;7.90;;;6.50;;
29210;SDS011;16250;49.932;10.980;2022-07-23T00:53:41;8.60;;;6.57;;
29210;SDS011;16250;49.932;10.980;2022-07-23T00:56:07;7.45;;;6.68;;
29210;SDS011;16250;49.932;10.980;2022-07-23T00:58:34;7.47;;;6.18;;
29210;SDS011;16250;49.932;10.980;2022-07-23T01:01:00;7.97;;;6.20;;
29210;SDS011;16250;49.932;10.980;2022-07-23T01:03:26;7.95;;;6.90;;
29210;SDS011;16250;49.932;10.980;2022-07-23T01:05:52;7.95;;;7.15;;
29210;SDS011;16250;49.932;10.980;2022-07-23T01:08:18;11.38;;;6.93;;
29210;SDS011;16250;49.932;10.980;2022-07-23T01:10:44;7.78;;;6.70;;
29210;SDS011;16250;49.932;10.980;2022-07-23T01:13:12;7.07;;;6.38;;
29210;SDS011;16250;49.932;10.980;2022-07-23T01:15:38;11.07;;;6.80;;
29210;SDS011;16250;49.932;10.980;2022-07-23T01:18:04;8.13;;;6.30;;
29210;SDS011;16250;49.932;10.980;2022-07-23T01:20:30;7.35;;;6.60;;
29210;SDS011;16250;49.932;10.980;2022-07-23T01:22:57;7.90;;;7.05;;
29210;SDS011;16250;49.932;10.980;2022-07-23T01:25:23;8.93;;;6.70;;
29210;SDS011;16250;49.932;10.980;2022-07-23T01:27:50;7.43;;;6.65;;
29210;SDS011;16250;49.932;10.980;2022-07-23T01:30:17;7.78;;;6.95;;
29210;SDS011;16250;49.932;10.980;2022-07-23T01:32:43;9.40;;;7.10;;
29210;SDS011;16250;49.932;10.980;2022-07-23T01:35:08;9.88;;;7.05;;
29210;SDS011;16250;49.932;10.980;2022-07-23T01:37:35;10.43;;;6.90;;
29210;SDS011;16250;49.932;10.980;2022-07-23T01:40:01;10.45;;;7.20;;
29210;SDS011;16250;49.932;10.980;2022-07-23T01:42:27;9.77;;;6.65;;
29210;SDS011;16250;49.932;10.980;2022-07-23T01:44:53;9.27;;;7.35;;
29210;SDS011;16250;49.932;10.980;2022-07-23T01:47:18;9.57;;;6.75;;
29210;SDS011;16250;49.932;10.980;2022-07-23T01:49:44;9.02;;;7.85;;
29210;SDS011;16250;49.932;10.980;2022-07-23T01:52:09;12.23;;;7.88;;
29210;SDS011;16250;49.932;10.980;2022-07-23T01:54:36;9.82;;;7.97;;
29210;SDS011;16250;49.932;10.980;2022-07-23T01:57:03;9.25;;;7.78;;
29210;SDS011;16250;49.932;10.980;2022-07-23T01:59:29;11.43;;;8.23;;
29210;SDS011;16250;49.932;10.980;2022-07-23T02:01:55;9.57;;;7.82;;
29210;SDS011;16250;49.932;10.980;2022-07-23T02:04:22;9.40;;;7.55;;
29210;SDS011;16250;49.932;10.980;2022-07-23T02:06:49;8.48;;;7.15;;
29210;SDS011;16250;49.932;10.980;2022-07-23T02:09:15;7.95;;;7.15;;
29210;SDS011;16250;49.932;10.980;2022-07-23T02:11:41;11.32;;;7.18;;
29210;SDS011;16250;49.932;10.980;2022-07-23T02:14:07;12.13;;;7.65;;
29210;SDS011;16250;49.932;10.980;2022-07-23T02:16:32;8.95;;;7.53;;
29210;SDS011;16250;49.932;10.980;2022-07-23T02:18:58;10.70;;;7.35;;
29210;SDS011;16250;49.932;10.980;2022-07-23T02:21:24;9.57;;;7.32;;
29210;SDS011;16250;49.932;10.980;2022-07-23T02:23:49;8.52;;;7.35;;
29210;SDS011;16250;49.932;10.980;2022-07-23T02:26:15;9.35;;;7.50;;
29210;SDS011;16250;49.932;10.980;2022-07-23T02:28:40;7.95;;;7.07;;
29210;SDS011;16250;49.932;10.980;2022-07-23T02:31:06;9.80;;;7.03;;
29210;SDS011;16250;49.932;10.980;2022-07-23T02:33:32;9.30;;;7.13;;
29210;SDS011;16250;49.932;10.980;2022-07-23T02:35:58;9.45;;;7.30;;
29210;SDS011;16250;49.932;10.980;2022-07-23T02:38:24;8.93;;;7.88;;
29210;SDS011;16250;49.932;10.980;2022-07-23T02:40:50;11.38;;;7.97;;
29210;SDS011;16250;49.932;10.980;2022-07-23T02:43:16;8.20;;;7.20;;
29210;SDS011;16250;49.932;10.980;2022-07-23T02:45:41;10.48;;;7.30;;
29210;SDS011;16250;49.932;10.980;2022-07-23T02:48:07;14.68;;;7.38;;
29210;SDS011;16250;49.932;10.980;2022-07-23T02:50:32;7.75;;;7.05;;
29210;SDS011;16250;49.932;10.980;2022-07-23T02:52:58;11.30;;;7.30;;
29210;SDS011;16250;49.932;10.980;2022-07-23T02:55:24;9.65;;;7.43;;
29210;SDS011;16250;49.932;10.980;2022-07-23T02:57:49;7.75;;;6.95;;
29210;SDS011;16250;49.932;10.980;2022-07-23T03:00:15;8.95;;;7.07;;
29210;SDS011;16250;49.932;10.980;2022-07-23T03:02:41;9.68;;;7.40;;
29210;SDS011;16250;49.932;10.980;2022-07-23T03:05:06;9.32;;;8.07;;
29210;SDS011;16250;49.932;10.980;2022-07-23T03:07:32;10.85;;;8.45;;
29210;SDS011;16250;49.932;10.980;2022-07-23T03:09:58;11.27;;;8.02;;
29210;SDS011;16250;49.932;10.980;2022-07-23T03:12:23;9.32;;;8.35;;
29210;SDS011;16250;49.932;10.980;2022-07-23T03:14:49;11.20;;;7.82;;
29210;SDS011;16250;49.932;10.980;2022-07-23T03:17:15;11.27;;;8.50;;
29210;SDS011;16250;49.932;10.980;2022-07-23T03:19:40;13.30;;;7.50;;
29210;SDS011;16250;49.932;10.980;2022-07-23T03:22:06;9.10;;;7.80;;
29210;SDS011;16250;49.932;10.980;2022-07-23T03:24:32;10.02;;;7.63;;
29210;SDS011;16250;49.932;10.980;2022-07-23T03:27:16;9.00;;;7.70;;
29210;SDS011;16250;49.932;10.980;2022-07-23T03:29:42;9.02;;;7.57;;
29210;SDS011;16250;49.932;10.980;2022-07-23T03:32:07;9.23;;;8.32;;
29210;SDS011;16250;49.932;10.980;2022-07-23T03:34:33;9.18;;;7.85;;
29210;SDS011;16250;49.932;10.980;2022-07-23T03:36:58;9.82;;;7.75;;
29210;SDS011;16250;49.932;10.980;2022-07-23T03:39:24;10.57;;;8.75;;
29210;SDS011;16250;49.932;10.980;2022-07-23T03:41:50;9.77;;;8.10;;
29210;SDS011;16250;49.932;10.980;2022-07-23T03:44:15;9.27;;;8.38;;
29210;SDS011;16250;49.932;10.980;2022-07-23T03:46:41;9.52;;;8.52;;
29210;SDS011;16250;49.932;10.980;2022-07-23T03:49:06;11.88;;;9.35;;
29210;SDS011;16250;49.932;10.980;2022-07-23T03:51:32;9.80;;;8.82;;
29210;SDS011;16250;49.932;10.980;2022-07-23T03:53:57;13.57;;;9.10;;
29210;SDS011;16250;49.932;10.980;2022-07-23T03:56:23;10.15;;;8.98;;
29210;SDS011;16250;49.932;10.980;2022-07-23T03:58:49;10.77;;;8.77;;
29210;SDS011;16250;49.932;10.980;2022-07-23T04:01:15;10.00;;;8.98;;
29210;SDS011;16250;49.932;10.980;2022-07-23T04:03:40;10.88;;;9.02;;
29210;SDS011;16250;49.932;10.980;2022-07-23T04:06:06;10.77;;;9.30;;
29210;SDS011;16250;49.932;10.980;2022-07-23T04:08:32;10.85;;;8.68;;
29210;SDS011;16250;49.932;10.980;2022-07-23T04:10:58;10.68;;;9.02;;
29210;SDS011;16250;49.932;10.980;2022-07-23T04:13:23;10.15;;;8.85;;
29210;SDS011;16250;49.932;10.980;2022-07-23T04:15:49;10.10;;;8.88;;
29210;SDS011;16250;49.932;10.980;2022-07-23T04:18:16;9.43;;;8.43;;
29210;SDS011;16250;49.932;10.980;2022-07-23T04:20:42;12.52;;;9.07;;
29210;SDS011;16250;49.932;10.980;2022-07-23T04:23:09;10.82;;;8.90;;
29210;SDS011;16250;49.932;10.980;2022-07-23T04:25:37;14.40;;;9.50;;
29210;SDS011;16250;49.932;10.980;2022-07-23T04:28:03;9.88;;;8.68;;
29210;SDS011;16250;49.932;10.980;2022-07-23T04:30:29;10.35;;;9.25;;
29210;SDS011;16250;49.932;10.980;2022-07-23T04:32:54;11.43;;;9.18;;
29210;SDS011;16250;49.932;10.980;2022-07-23T04:35:20;10.98;;;9.70;;
29210;SDS011;16250;49.932;10.980;2022-07-23T04:37:46;12.30;;;10.02;;
29210;SDS011;16250;49.932;10.980;2022-07-23T04:40:11;10.25;;;9.15;;
29210;SDS011;16250;49.932;10.980;2022-07-23T04:42:37;11.23;;;9.15;;
29210;SDS011;16250;49.932;10.980;2022-07-23T04:45:04;12.05;;;9.77;;
29210;SDS011;16250;49.932;10.980;2022-07-23T04:47:30;13.40;;;9.30;;
29210;SDS011;16250;49.932;10.980;2022-07-23T04:49:56;11.05;;;9.07;;
29210;SDS011;16250;49.932;10.980;2022-07-23T04:52:22;11.52;;;8.88;;
29210;SDS011;16250;49.932;10.980;2022-07-23T04:54:48;9.95;;;8.95;;
29210;SDS011;16250;49.932;10.980;2022-07-23T04:57:13;10.82;;;9.35;;
29210;SDS011;16250;49.932;10.980;2022-07-23T04:59:39;10.82;;;8.63;;
29210;SDS011;16250;49.932;10.980;2022-07-23T05:02:05;12.13;;;9.73;;
29210;SDS011;16250;49.932;10.980;2022-07-23T05:04:30;11.02;;;9.68;;
29210;SDS011;16250;49.932;10.980;2022-07-23T05:06:56;12.95;;;9.45;;
29210;SDS011;16250;49.932;10.980;2022-07-23T05:09:22;10.20;;;9.20;;
29210;SDS011;16250;49.932;10.980;2022-07-23T05:11:47;12.45;;;10.07;;
29210;SDS011;16250;49.932;10.980;2022-07-23T05:14:13;10.57;;;9.48;;
29210;SDS011;16250;49.932;10.980;2022-07-23T05:16:39;12.57;;;9.90;;
29210;SDS011;16250;49.932;10.980;2022-07-23T05:19:04;10.10;;;8.75;;
29210;SDS011;16250;49.932;10.980;2022-07-23T05:21:30;10.43;;;9.38;;
29210;SDS011;16250;49.932;10.980;2022-07-23T05:23:55;14.80;;;9.68;;
29210;SDS011;16250;49.932;10.980;2022-07-23T05:26:21;15.07;;;9.32;;
29210;SDS011;16250;49.932;10.980;2022-07-23T05:28:47;10.27;;;9.25;;
29210;SDS011;16250;49.932;10.980;2022-07-23T05:31:12;11.88;;;10.65;;
29210;SDS011;16250;49.932;10.980;2022-07-23T05:33:38;13.95;;;9.82;;
29210;SDS011;16250;49.932;10.980;2022-07-23T05:36:04;10.43;;;9.27;;
29210;SDS011;16250;49.932;10.980;2022-07-23T05:38:30;11.88;;;9.40;;
29210;SDS011;16250;49.932;10.980;2022-07-23T05:40:57;10.82;;;9.73;;
29210;SDS011;16250;49.932;10.980;2022-07-23T05:43:22;10.68;;;9.57;;
29210;SDS011;16250;49.932;10.980;2022-07-23T05:45:48;11.82;;;9.18;;
29210;SDS011;16250;49.932;10.980;2022-07-23T05:48:14;10.95;;;9.85;;
29210;SDS011;16250;49.932;10.980;2022-07-23T05:50:39;9.82;;;8.93;;
29210;SDS011;16250;49.932;10.980;2022-07-23T05:53:06;11.82;;;9.32;;
29210;SDS011;16250;49.932;10.980;2022-07-23T05:55:32;11.32;;;10.13;;
29210;SDS011;16250;49.932;10.980;2022-07-23T05:57:58;11.63;;;9.48;;
29210;SDS011;16250;49.932;10.980;2022-07-23T06:00:24;10.30;;;9.40;;
29210;SDS011;16250;49.932;10.980;2022-07-23T06:02:50;12.70;;;9.80;;
29210;SDS011;16250;49.932;10.980;2022-07-23T06:05:17;14.30;;;9.70;;
29210;SDS011;16250;49.932;10.980;2022-07-23T06:07:42;10.45;;;9.30;;
29210;SDS011;16250;49.932;10.980;2022-07-23T06:10:08;11.50;;;9.23;;
29210;SDS011;16250;49.932;10.980;2022-07-23T06:12:34;12.60;;;9.05;;
29210;SDS011;16250;49.932;10.980;2022-07-23T06:15:00;10.27;;;9.27;;
29210;SDS011;16250;49.932;10.980;2022-07-23T06:17:26;12.07;;;10.10;;
29210;SDS011;16250;49.932;10.980;2022-07-23T06:19:52;11.57;;;9.88;;
29210;SDS011;16250;49.932;10.980;2022-07-23T06:22:18;13.00;;;10.10;;
29210;SDS011;16250;49.932;10.980;2022-07-23T06:24:44;12.07;;;10.23;;
29210;SDS011;16250;49.932;10.980;2022-07-23T06:27:10;10.75;;;9.65;;
29210;SDS011;16250;49.932;10.980;2022-07-23T06:29:35;11.65;;;9.77;;
29210;SDS011;16250;49.932;10.980;2022-07-23T06:32:01;12.45;;;9.85;;
29210;SDS011;16250;49.932;10.980;2022-07-23T06:34:26;11.05;;;9.75;;
29210;SDS011;16250;49.932;10.980;2022-07-23T06:36:52;12.90;;;10.05;;
29210;SDS011;16250;49.932;10.980;2022-07-23T06:39:18;10.63;;;9.30;;
29210;SDS011;16250;49.932;10.980;2022-07-23T06:41:43;11.25;;;10.10;;
29210;SDS011;16250;49.932;10.980;2022-07-23T06:44:09;13.90;;;10.23;;
29210;SDS011;16250;49.932;10.980;2022-07-23T06:46:34;10.43;;;9.32;;
29210;SDS011;16250;49.932;10.980;2022-07-23T06:49:00;11.52;;;9.60;;
29210;SDS011;16250;49.932;10.980;2022-07-23T06:51:26;11.93;;;9.70;;
29210;SDS011;16250;49.932;10.980;2022-07-23T06:53:51;12.82;;;9.45;;
29210;SDS011;16250;49.932;10.980;2022-07-23T06:56:17;11.50;;;9.18;;
29210;SDS011;16250;49.932;10.980;2022-07-23T06:58:42;11.90;;;9.77;;
29210;SDS011;16250;49.932;10.980;2022-07-23T07:01:08;9.85;;;8.77;;
29210;SDS011;16250;49.932;10.980;2022-07-23T07:03:34;10.80;;;9.70;;
29210;SDS011;16250;49.932;10.980;2022-07-23T07:05:59;10.18;;;8.95;;
29210;SDS011;16250;49.932;10.980;2022-07-23T07:08:25;11.00;;;9.45;;
29210;SDS011;16250;49.932;10.980;2022-07-23T07:10:50;11.43;;;9.02;;
29210;SDS011;16250;49.932;10.980;2022-07-23T07:13:16;11.40;;;8.55;;
29210;SDS011;16250;49.932;10.980;2022-07-23T07:15:42;11.45;;;9.57;;
29210;SDS011;16250;49.932;10.980;2022-07-23T07:18:07;11.05;;;9.43;;
29210;SDS011;16250;49.932;10.980;2022-07-23T07:20:33;10.18;;;9.02;;
29210;SDS011;16250;49.932;10.980;2022-07-23T07:22:59;10.80;;;9.70;;
29210;SDS011;16250;49.932;10.980;2022-07-23T07:25:24;10.00;;;9.00;;
29210;SDS011;16250;49.932;10.980;2022-07-23T07:27:50;11.18;;;8.73;;
29210;SDS011;16250;49.932;10.980;2022-07-23T07:30:15;10.20;;;9.05;;
29210;SDS011;16250;49.932;10.980;2022-07-23T07:32:41;8.50;;;7.60;;
29210;SDS011;16250;49.932;10.980;2022-07-23T07:35:07;9.68;;;7.35;;
29210;SDS011;16250;49.932;10.980;2022-07-23T07:37:33;9.35;;;7.40;;
29210;SDS011;16250;49.932;10.980;2022-07-23T07:39:58;9.50;;;7.13;;
29210;SDS011;16250;49.932;10.980;2022-07-23T07:42:24;10.38;;;7.40;;
29210;SDS011;16250;49.932;10.980;2022-07-23T07:44:50;8.10;;;7.00;;
29210;SDS011;16250;49.932;10.980;2022-07-23T07:47:15;9.52;;;6.05;;
29210;SDS011;16250;49.932;10.980;2022-07-23T07:49:41;7.05;;;6.35;;
29210;SDS011;16250;49.932;10.980;2022-07-23T07:52:07;6.93;;;6.30;;
29210;SDS011;16250;49.932;10.980;2022-07-23T07:54:33;8.20;;;6.20;;
29210;SDS011;16250;49.932;10.980;2022-07-23T07:56:59;7.70;;;5.97;;
29210;SDS011;16250;49.932;10.980;2022-07-23T07:59:25;8.20;;;6.05;;
29210;SDS011;16250;49.932;10.980;2022-07-23T08:01:50;7.35;;;6.50;;
29210;SDS011;16250;49.932;10.980;2022-07-23T08:04:16;8.32;;;6.38;;
29210;SDS011;16250;49.932;10.980;2022-07-23T08:06:42;8.60;;;6.20;;
29210;SDS011;16250;49.932;10.980;2022-07-23T08:09:07;9.93;;;7.00;;
29210;SDS011;16250;49.932;10.980;2022-07-23T08:11:33;8.63;;;6.40;;
29210;SDS011;16250;49.932;10.980;2022-07-23T08:13:59;7.75;;;6.45;;
29210;SDS011;16250;49.932;10.980;2022-07-23T08:16:24;7.20;;;6.20;;
29210;SDS011;16250;49.932;10.980;2022-07-23T08:18:50;9.27;;;6.50;;
29210;SDS011;16250;49.932;10.980;2022-07-23T08:21:15;10.05;;;6.90;;
29210;SDS011;16250;49.932;10.980;2022-07-23T08:23:41;8.35;;;7.55;;
29210;SDS011;16250;49.932;10.980;2022-07-23T08:26:06;10.45;;;7.40;;
29210;SDS011;16250;49.932;10.980;2022-07-23T08:28:32;8.27;;;7.47;;
29210;SDS011;16250;49.932;10.980;2022-07-23T08:30:58;9.20;;;7.00;;
29210;SDS011;16250;49.932;10.980;2022-07-23T08:33:24;9.88;;;7.40;;
29210;SDS011;16250;49.932;10.980;2022-07-23T08:35:50;9.73;;;7.30;;
29210;SDS011;16250;49.932;10.980;2022-07-23T08:38:18;9.68;;;7.07;;
29210;SDS011;16250;49.932;10.980;2022-07-23T08:40:46;8.68;;;7.13;;
29210;SDS011;16250;49.932;10.980;2022-07-23T08:43:15;8.75;;;7.72;;
29210;SDS011;16250;49.932;10.980;2022-07-23T08:45:52;11.52;;;7.25;;
29210;SDS011;16250;49.932;10.980;2022-07-23T08:48:22;11.15;;;7.07;;
29210;SDS011;16250;49.932;10.980;2022-07-23T08:50:53;8.57;;;7.57;;
29210;SDS011;16250;49.932;10.980;2022-07-23T08:53:20;7.95;;;7.05;;
29210;SDS011;16250;49.932;10.980;2022-07-23T08:55:47;9.10;;;7.45;;
29210;SDS011;16250;49.932;10.980;2022-07-23T08:58:14;10.43;;;6.60;;
29210;SDS011;16250;49.932;10.980;2022-07-23T09:00:41;8.77;;;7.32;;
29210;SDS011;16250;49.932;10.980;2022-07-23T09:03:07;8.45;;;6.88;;
29210;SDS011;16250;49.932;10.980;2022-07-23T09:05:38;8.10;;;7.07;;
29210;SDS011;16250;49.932;10.980;2022-07-23T09:08:08;9.93;;;6.78;;
29210;SDS011;16250;49.932;10.980;2022-07-23T09:11:01;7.60;;;6.70;;
29210;SDS011;16250;49.932;10.980;2022-07-23T09:13:30;11.07;;;7.05;;
29210;SDS011;16250;49.932;10.980;2022-07-23T09:16:08;8.68;;;7.07;;
29210;SDS011;16250;49.932;10.980;2022-07-23T09:18:41;8.88;;;7.07;;
29210;SDS011;16250;49.932;10.980;2022-07-23T09:21:25;9.10;;;7.25;;
29210;SDS011;16250;49.932;10.980;2022-07-23T09:26:32;9.57;;;7.40;;
29210;SDS011;16250;49.932;10.980;2022-07-23T09:36:40;11.20;;;7.60;;
29210;SDS011;16250;49.932;10.980;2022-07-23T09:39:06;9.18;;;6.97;;
29210;SDS011;16250;49.932;10.980;2022-07-23T09:41:34;10.73;;;8.43;;
29210;SDS011;16250;49.932;10.980;2022-07-23T09:44:07;10.23;;;8.25;;
29210;SDS011;16250;49.932;10.980;2022-07-23T09:46:44;9.07;;;7.75;;
29210;SDS011;16250;49.932;10.980;2022-07-23T09:49:18;11.02;;;7.93;;
29210;SDS011;16250;49.932;10.980;2022-07-23T09:51:46;9.75;;;8.13;;
29210;SDS011;16250;49.932;10.980;2022-07-23T09:54:35;13.02;;;8.23;;
29210;SDS011;16250;49.932;10.980;2022-07-23T09:57:03;10.25;;;8.25;;
29210;SDS011;16250;49.932;10.980;2022-07-23T09:59:35;10.35;;;9.27;;
29210;SDS011;16250;49.932;10.980;2022-07-23T10:02:03;10.02;;;8.48;;
29210;SDS011;16250;49.932;10.980;2022-07-23T10:04:31;11.50;;;8.27;;
29210;SDS011;16250;49.932;10.980;2022-07-23T10:06:58;9.40;;;8.48;;
29210;SDS011;16250;49.932;10.980;2022-07-23T10:09:29;12.50;;;8.20;;
29210;SDS011;16250;49.932;10.980;2022-07-23T10:11:58;11.40;;;9.07;;
29210;SDS011;16250;49.932;10.980;2022-07-23T10:14:38;10.27;;;9.18;;
29210;SDS011;16250;49.932;10.980;2022-07-23T10:17:04;10.73;;;9.65;;
29210;SDS011;16250;49.932;10.980;2022-07-23T10:19:30;10.57;;;9.57;;
29210;SDS011;16250;49.932;10.980;2022-07-23T10:21:58;10.20;;;9.05;;
29210;SDS011;16250;49.932;10.980;2022-07-23T10:30:09;9.88;;;8.85;;
29210;SDS011;16250;49.932;10.980;2022-07-23T10:32:44;10.82;;;9.20;;
29210;SDS011;16250;49.932;10.980;2022-07-23T10:35:42;12.50;;;8.15;;
29210;SDS011;16250;49.932;10.980;2022-07-23T10:38:14;10.15;;;8.68;;
29210;SDS011;16250;49.932;10.980;2022-07-23T10:41:02;11.35;;;9.38;;
29210;SDS011;16250;49.932;10.980;2022-07-23T10:43:29;10.23;;;9.10;;
29210;SDS011;16250;49.932;10.980;2022-07-23T10:45:56;10.75;;;8.63;;
29210;SDS011;16250;49.932;10.980;2022-07-23T10:48:41;13.10;;;8.32;;
29210;SDS011;16250;49.932;10.980;2022-07-23T10:51:14;10.93;;;7.85;;
29210;SDS011;16250;49.932;10.980;2022-07-23T10:53:56;10.75;;;8.57;;
29210;SDS011;16250;49.932;10.980;2022-07-23T10:59:19;9.43;;;8.27;;
29210;SDS011;16250;49.932;10.980;2022-07-23T11:01:45;9.73;;;8.60;;
29210;SDS011;16250;49.932;10.980;2022-07-23T11:04:11;10.85;;;8.63;;
29210;SDS011;16250;49.932;10.980;2022-07-23T11:18:16;9.15;;;8.27;;
29210;SDS011;16250;49.932;10.980;2022-07-23T11:20:18;10.70;;;8.73;;
29210;SDS011;16250;49.932;10.980;2022-07-23T11:25:13;10.20;;;8.90;;
29210;SDS011;16250;49.932;10.980;2022-07-23T11:28:15;9.60;;;8.60;;
29210;SDS011;16250;49.932;10.980;2022-07-23T11:30:43;11.60;;;8.90;;
29210;SDS011;16250;49.932;10.980;2022-07-23T11:35:36;9.63;;;8.70;;
29210;SDS011;16250;49.932;10.980;2022-07-23T11:38:04;9.95;;;8.95;;
29210;SDS011;16250;49.932;10.980;2022-07-23T11:40:37;9.60;;;8.60;;
29210;SDS011;16250;49.932;10.980;2022-07-23T11:43:04;8.90;;;7.93;;
29210;SDS011;16250;49.932;10.980;2022-07-23T11:45:33;9.48;;;8.38;;
29210;SDS011;16250;49.932;10.980;2022-07-23T11:48:04;9.13;;;7.60;;
29210;SDS011;16250;49.932;10.980;2022-07-23T11:50:31;8.75;;;7.95;;
29210;SDS011;16250;49.932;10.980;2022-07-23T11:52:57;9.13;;;7.85;;
29210;SDS011;16250;49.932;10.980;2022-07-23T11:55:23;9.60;;;7.70;;
29210;SDS011;16250;49.932;10.980;2022-07-23T11:57:50;9.65;;;7.70;;
29210;SDS011;16250;49.932;10.980;2022-07-23T12:00:21;9.27;;;8.25;;
29210;SDS011;16250;49.932;10.980;2022-07-23T12:02:49;10.75;;;7.57;;
29210;SDS011;16250;49.932;10.980;2022-07-23T12:05:20;11.00;;;8.35;;
29210;SDS011;16250;49.932;10.980;2022-07-23T12:07:48;8.80;;;7.90;;
29210;SDS011;16250;49.932;10.980;2022-07-23T12:12:45;9.82;;;8.20;;
29210;SDS011;16250;49.932;10.980;2022-07-23T12:15:14;10.15;;;7.95;;
29210;SDS011;16250;49.932;10.980;2022-07-23T12:17:41;9.50;;;8.57;;
29210;SDS011;16250;49.932;10.980;2022-07-23T12:20:10;8.93;;;8.02;;
29210;SDS011;16250;49.932;10.980;2022-07-23T12:22:40;9.93;;;8.75;;
29210;SDS011;16250;49.932;10.980;2022-07-23T12:27:37;8.30;;;7.50;;
29210;SDS011;16250;49.932;10.980;2022-07-23T12:30:26;9.02;;;8.13;;
29210;SDS011;16250;49.932;10.980;2022-07-23T12:32:54;9.00;;;8.07;;
29210;SDS011;16250;49.932;10.980;2022-07-23T12:35:22;8.75;;;7.55;;
29210;SDS011;16250;49.932;10.980;2022-07-23T12:37:59;9.25;;;7.70;;
29210;SDS011;16250;49.932;10.980;2022-07-23T12:43:03;8.52;;;7.35;;
29210;SDS011;16250;49.932;10.980;2022-07-23T12:45:43;9.80;;;7.70;;
29210;SDS011;16250;49.932;10.980;2022-07-23T12:48:14;8.18;;;7.32;;
29210;SDS011;16250;49.932;10.980;2022-07-23T12:53:11;8.65;;;7.15;;
29210;SDS011;16250;49.932;10.980;2022-07-23T12:55:42;9.50;;;7.43;;
29210;SDS011;16250;49.932;10.980;2022-07-23T12:58:09;8.45;;;7.63;;
29210;SDS011;16250;49.932;10.980;2022-07-23T13:03:23;9.13;;;8.05;;
29210;SDS011;16250;49.932;10.980;2022-07-23T13:05:59;7.82;;;7.03;;
29210;SDS011;16250;49.932;10.980;2022-07-23T13:08:27;8.77;;;7.13;;
29210;SDS011;16250;49.932;10.980;2022-07-23T13:10:54;7.75;;;6.47;;
29210;SDS011;16250;49.932;10.980;2022-07-23T13:13:23;9.70;;;7.18;;
29210;SDS011;16250;49.932;10.980;2022-07-23T13:15:50;7.90;;;7.10;;
29210;SDS011;16250;49.932;10.980;2022-07-23T13:18:17;9.60;;;8.00;;
29210;SDS011;16250;49.932;10.980;2022-07-23T13:20:44;7.47;;;6.72;;
29210;SDS011;16250;49.932;10.980;2022-07-23T13:23:11;9.40;;;7.03;;
29210;SDS011;16250;49.932;10.980;2022-07-23T13:25:37;8.63;;;6.90;;
29210;SDS011;16250;49.932;10.980;2022-07-23T13:28:02;7.18;;;6.07;;
29210;SDS011;16250;49.932;10.980;2022-07-23T13:30:28;8.27;;;6.50;;
29210;SDS011;16250;49.932;10.980;2022-07-23T13:32:54;7.88;;;6.70;;
29210;SDS011;16250;49.932;10.980;2022-07-23T13:35:19;9.18;;;6.68;;
29210;SDS011;16250;49.932;10.980;2022-07-23T13:37:45;7.95;;;6.78;;
29210;SDS011;16250;49.932;10.980;2022-07-23T13:40:11;7.95;;;6.50;;
29210;SDS011;16250;49.932;10.980;2022-07-23T13:42:37;7.65;;;6.75;;
29210;SDS011;16250;49.932;10.980;2022-07-23T13:45:03;7.97;;;6.65;;
29210;SDS011;16250;49.932;10.980;2022-07-23T13:47:29;7.93;;;6.43;;
29210;SDS011;16250;49.932;10.980;2022-07-23T13:49:55;8.40;;;7.20;;
29210;SDS011;16250;49.932;10.980;2022-07-23T13:52:21;8.52;;;6.63;;
29210;SDS011;16250;49.932;10.980;2022-07-23T13:54:47;6.68;;;6.07;;
29210;SDS011;16250;49.932;10.980;2022-07-23T13:57:13;7.38;;;6.57;;
29210;SDS011;16250;49.932;10.980;2022-07-23T13:59:38;9.18;;;6.68;;
29210;SDS011;16250;49.932;10.980;2022-07-23T14:02:04;8.40;;;7.25;;
29210;SDS011;16250;49.932;10.980;2022-07-23T14:04:30;8.07;;;7.35;;
29210;SDS011;16250;49.932;10.980;2022-07-23T14:06:56;8.43;;;7.63;;
29210;SDS011;16250;49.932;10.980;2022-07-23T14:09:22;8.10;;;7.20;;
29210;SDS011;16250;49.932;10.980;2022-07-23T14:11:48;9.93;;;7.07;;
29210;SDS011;16250;49.932;10.980;2022-07-23T14:14:15;7.93;;;7.13;;
29210;SDS011;16250;49.932;10.980;2022-07-23T14:16:41;7.45;;;6.75;;
29210;SDS011;16250;49.932;10.980;2022-07-23T14:19:07;9.63;;;6.60;;
29210;SDS011;16250;49.932;10.980;2022-07-23T14:21:33;7.85;;;7.13;;
29210;SDS011;16250;49.932;10.980;2022-07-23T14:23:59;8.23;;;6.90;;
29210;SDS011;16250;49.932;10.980;2022-07-23T14:26:25;10.05;;;6.40;;
29210;SDS011;16250;49.932;10.980;2022-07-23T14:28:50;8.05;;;6.75;;
29210;SDS011;16250;49.932;10.980;2022-07-23T14:31:16;7.80;;;7.00;;
29210;SDS011;16250;49.932;10.980;2022-07-23T14:33:41;8.18;;;6.57;;
29210;SDS011;16250;49.932;10.980;2022-07-23T14:36:07;9.20;;;6.63;;
29210;SDS011;16250;49.932;10.980;2022-07-23T14:38:33;9.80;;;6.80;;
29210;SDS011;16250;49.932;10.980;2022-07-23T14:40:58;10.85;;;7.38;;
29210;SDS011;16250;49.932;10.980;2022-07-23T14:43:24;7.32;;;6.70;;
29210;SDS011;16250;49.932;10.980;2022-07-23T14:45:49;8.20;;;7.40;;
29210;SDS011;16250;49.932;10.980;2022-07-23T14:48:15;8.23;;;6.88;;
29210;SDS011;16250;49.932;10.980;2022-07-23T14:50:41;8.52;;;7.30;;
29210;SDS011;16250;49.932;10.980;2022-07-23T14:53:06;9.27;;;7.28;;
29210;SDS011;16250;49.932;10.980;2022-07-23T14:55:32;7.57;;;6.72;;
29210;SDS011;16250;49.932;10.980;2022-07-23T14:57:58;7.78;;;7.03;;
29210;SDS011;16250;49.932;10.980;2022-07-23T15:00:24;10.27;;;7.07;;
29210;SDS011;16250;49.932;10.980;2022-07-23T15:02:50;7.75;;;7.03;;
29210;SDS011;16250;49.932;10.980;2022-07-23T15:05:16;12.70;;;6.78;;
29210;SDS011;16250;49.932;10.980;2022-07-23T15:07:42;7.40;;;6.28;;
29210;SDS011;16250;49.932;10.980;2022-07-23T15:10:08;7.75;;;6.70;;
29210;SDS011;16250;49.932;10.980;2022-07-23T15:12:33;7.65;;;6.47;;
29210;SDS011;16250;49.932;10.980;2022-07-23T15:14:59;9.88;;;7.00;;